sensor_id;sensor_type;location;lat;lon;timestamp;P1;durP1;ratioP1;P2;durP2;ratioP2
56141;SDS011;42018;48.588;10.836;2023-04-25T00:00:11;4.18;;;2.10;;
56141;SDS011;42018;48.588;10.836;2023-04-25T00:02:56;4.10;;;2.17;;
56141;SDS011;42018;48.588;10.836;2023-04-25T00:05:42;4.00;;;2.13;;
56141;SDS011;42018;48.588;10.836;2023-04-25T00:08:28;4.57;;;2.33;;
56141;SDS011;42018;48.588;10.836;2023-04-25T00:11:15;3.90;;;2.00;;
56141;SDS011;42018;48.588;10.836;2023-04-25T00:14:00;3.70;;;2.17;;
56141;SDS011;42018;48.588;10.836;2023-04-25T00:16:47;3.90;;;2.10;;
56141;SDS011;42018;48.588;10.836;2023-04-25T00:19:33;4.10;;;2.30;;
56141;SDS011;42018;48.588;10.836;2023-04-25T00:22:20;6.15;;;2.40;;
56141;SDS011;42018;48.588;10.836;2023-04-25T00:25:05;4.40;;;2.20;;
56141;SDS011;42018;48.588;10.836;2023-04-25T00:27:51;3.63;;;2.03;;
56141;SDS011;42018;48.588;10.836;2023-04-25T00:30:36;3.80;;;2.20;;
56141;SDS011;42018;48.588;10.836;2023-04-25T00:33:22;4.68;;;2.33;;
56141;SDS011;42018;48.588;10.836;2023-04-25T00:36:07;4.45;;;2.15;;
56141;SDS011;42018;48.588;10.836;2023-04-25T00:38:53;4.00;;;2.20;;
56141;SDS011;42018;48.588;10.836;2023-04-25T00:41:42;4.70;;;2.45;;
56141;SDS011;42018;48.588;10.836;2023-04-25T00:44:29;4.63;;;2.13;;
56141;SDS011;42018;48.588;10.836;2023-04-25T00:47:17;4.30;;;2.40;;
56141;SDS011;42018;48.588;10.836;2023-04-25T00:50:02;7.13;;;2.40;;
56141;SDS011;42018;48.588;10.836;2023-04-25T00:52:48;4.07;;;2.40;;
56141;SDS011;42018;48.588;10.836;2023-04-25T00:55:33;5.38;;;2.60;;
56141;SDS011;42018;48.588;10.836;2023-04-25T00:58:21;4.40;;;2.72;;
56141;SDS011;42018;48.588;10.836;2023-04-25T01:01:07;5.88;;;2.42;;
56141;SDS011;42018;48.588;10.836;2023-04-25T01:03:53;5.10;;;2.63;;
56141;SDS011;42018;48.588;10.836;2023-04-25T01:06:39;5.45;;;2.75;;
56141;SDS011;42018;48.588;10.836;2023-04-25T01:09:25;4.72;;;2.50;;
56141;SDS011;42018;48.588;10.836;2023-04-25T01:12:10;5.43;;;2.50;;
56141;SDS011;42018;48.588;10.836;2023-04-25T01:14:56;5.30;;;2.90;;
56141;SDS011;42018;48.588;10.836;2023-04-25T01:17:42;4.55;;;2.58;;
56141;SDS011;42018;48.588;10.836;2023-04-25T01:20:29;3.90;;;2.35;;
56141;SDS011;42018;48.588;10.836;2023-04-25T01:23:15;4.78;;;2.65;;
56141;SDS011;42018;48.588;10.836;2023-04-25T01:26:01;5.07;;;2.58;;
56141;SDS011;42018;48.588;10.836;2023-04-25T01:28:47;4.30;;;2.30;;
56141;SDS011;42018;48.588;10.836;2023-04-25T01:31:33;4.18;;;2.40;;
56141;SDS011;42018;48.588;10.836;2023-04-25T01:34:20;4.45;;;2.35;;
56141;SDS011;42018;48.588;10.836;2023-04-25T01:37:05;4.90;;;2.50;;
56141;SDS011;42018;48.588;10.836;2023-04-25T01:39:51;4.85;;;2.72;;
56141;SDS011;42018;48.588;10.836;2023-04-25T01:42:42;5.03;;;2.40;;
56141;SDS011;42018;48.588;10.836;2023-04-25T01:45:28;4.30;;;2.53;;
56141;SDS011;42018;48.588;10.836;2023-04-25T01:48:14;3.80;;;2.10;;
56141;SDS011;42018;48.588;10.836;2023-04-25T01:50:59;5.07;;;2.67;;
56141;SDS011;42018;48.588;10.836;2023-04-25T01:53:45;4.47;;;2.50;;
56141;SDS011;42018;48.588;10.836;2023-04-25T01:56:31;5.63;;;2.50;;
56141;SDS011;42018;48.588;10.836;2023-04-25T01:59:18;4.82;;;2.40;;
56141;SDS011;42018;48.588;10.836;2023-04-25T02:02:05;5.88;;;2.20;;
56141;SDS011;42018;48.588;10.836;2023-04-25T02:04:50;4.90;;;2.42;;
56141;SDS011;42018;48.588;10.836;2023-04-25T02:07:36;3.78;;;2.28;;
56141;SDS011;42018;48.588;10.836;2023-04-25T02:10:21;3.80;;;2.20;;
56141;SDS011;42018;48.588;10.836;2023-04-25T02:13:07;4.53;;;2.28;;
56141;SDS011;42018;48.588;10.836;2023-04-25T02:15:52;3.90;;;2.35;;
56141;SDS011;42018;48.588;10.836;2023-04-25T02:18:37;4.82;;;2.40;;
56141;SDS011;42018;48.588;10.836;2023-04-25T02:21:24;4.75;;;2.08;;
56141;SDS011;42018;48.588;10.836;2023-04-25T02:24:09;4.35;;;2.25;;
56141;SDS011;42018;48.588;10.836;2023-04-25T02:26:54;4.40;;;2.35;;
56141;SDS011;42018;48.588;10.836;2023-04-25T02:29:43;4.63;;;2.92;;
56141;SDS011;42018;48.588;10.836;2023-04-25T02:32:28;4.38;;;2.40;;
56141;SDS011;42018;48.588;10.836;2023-04-25T02:35:13;4.38;;;2.70;;
56141;SDS011;42018;48.588;10.836;2023-04-25T02:37:59;4.28;;;2.70;;
56141;SDS011;42018;48.588;10.836;2023-04-25T02:40:44;6.05;;;2.50;;
56141;SDS011;42018;48.588;10.836;2023-04-25T02:43:29;4.53;;;2.50;;
56141;SDS011;42018;48.588;10.836;2023-04-25T02:46:15;5.28;;;2.63;;
56141;SDS011;42018;48.588;10.836;2023-04-25T02:49:00;4.97;;;2.80;;
56141;SDS011;42018;48.588;10.836;2023-04-25T02:51:45;4.22;;;2.45;;
56141;SDS011;42018;48.588;10.836;2023-04-25T02:54:31;5.10;;;2.88;;
56141;SDS011;42018;48.588;10.836;2023-04-25T02:57:16;5.80;;;3.00;;
56141;SDS011;42018;48.588;10.836;2023-04-25T03:00:02;4.22;;;2.75;;
56141;SDS011;42018;48.588;10.836;2023-04-25T03:02:50;4.53;;;2.90;;
56141;SDS011;42018;48.588;10.836;2023-04-25T03:05:35;4.70;;;2.72;;
56141;SDS011;42018;48.588;10.836;2023-04-25T03:08:21;3.92;;;2.60;;
56141;SDS011;42018;48.588;10.836;2023-04-25T03:11:07;4.53;;;2.50;;
56141;SDS011;42018;48.588;10.836;2023-04-25T03:13:53;4.85;;;2.80;;
56141;SDS011;42018;48.588;10.836;2023-04-25T03:16:38;4.40;;;2.30;;
56141;SDS011;42018;48.588;10.836;2023-04-25T03:19:24;4.43;;;2.65;;
56141;SDS011;42018;48.588;10.836;2023-04-25T03:22:09;4.35;;;2.38;;
56141;SDS011;42018;48.588;10.836;2023-04-25T03:24:54;4.25;;;2.40;;
56141;SDS011;42018;48.588;10.836;2023-04-25T03:27:40;4.32;;;2.55;;
56141;SDS011;42018;48.588;10.836;2023-04-25T03:30:25;4.68;;;2.60;;
56141;SDS011;42018;48.588;10.836;2023-04-25T03:33:10;5.65;;;3.00;;
56141;SDS011;42018;48.588;10.836;2023-04-25T03:35:56;4.38;;;2.70;;
56141;SDS011;42018;48.588;10.836;2023-04-25T03:38:41;5.00;;;3.17;;
56141;SDS011;42018;48.588;10.836;2023-04-25T03:41:27;5.65;;;2.70;;
56141;SDS011;42018;48.588;10.836;2023-04-25T03:44:13;4.82;;;2.60;;
56141;SDS011;42018;48.588;10.836;2023-04-25T03:46:58;4.47;;;2.70;;
56141;SDS011;42018;48.588;10.836;2023-04-25T03:49:43;4.70;;;2.80;;
56141;SDS011;42018;48.588;10.836;2023-04-25T03:52:29;5.05;;;2.70;;
56141;SDS011;42018;48.588;10.836;2023-04-25T03:55:15;4.65;;;2.63;;
56141;SDS011;42018;48.588;10.836;2023-04-25T03:58:00;4.47;;;2.78;;
56141;SDS011;42018;48.588;10.836;2023-04-25T04:00:46;5.15;;;3.10;;
56141;SDS011;42018;48.588;10.836;2023-04-25T04:03:31;5.22;;;3.25;;
56141;SDS011;42018;48.588;10.836;2023-04-25T04:06:16;4.50;;;3.05;;
56141;SDS011;42018;48.588;10.836;2023-04-25T04:09:02;4.82;;;3.03;;
56141;SDS011;42018;48.588;10.836;2023-04-25T04:11:48;5.13;;;2.92;;
56141;SDS011;42018;48.588;10.836;2023-04-25T04:14:33;4.97;;;2.92;;
56141;SDS011;42018;48.588;10.836;2023-04-25T04:17:19;4.82;;;2.90;;
56141;SDS011;42018;48.588;10.836;2023-04-25T04:20:04;4.75;;;2.75;;
56141;SDS011;42018;48.588;10.836;2023-04-25T04:22:51;4.80;;;2.88;;
56141;SDS011;42018;48.588;10.836;2023-04-25T04:25:36;4.10;;;2.47;;
56141;SDS011;42018;48.588;10.836;2023-04-25T04:28:21;5.05;;;3.10;;
56141;SDS011;42018;48.588;10.836;2023-04-25T04:31:07;4.50;;;2.90;;
56141;SDS011;42018;48.588;10.836;2023-04-25T04:33:52;4.72;;;2.90;;
56141;SDS011;42018;48.588;10.836;2023-04-25T04:36:38;4.32;;;2.70;;
56141;SDS011;42018;48.588;10.836;2023-04-25T04:39:24;5.75;;;2.90;;
56141;SDS011;42018;48.588;10.836;2023-04-25T04:42:10;4.65;;;2.67;;
56141;SDS011;42018;48.588;10.836;2023-04-25T04:44:56;5.68;;;2.95;;
56141;SDS011;42018;48.588;10.836;2023-04-25T04:47:43;5.10;;;3.20;;
56141;SDS011;42018;48.588;10.836;2023-04-25T04:50:29;6.18;;;3.08;;
56141;SDS011;42018;48.588;10.836;2023-04-25T04:53:17;5.28;;;3.33;;
56141;SDS011;42018;48.588;10.836;2023-04-25T04:56:03;7.38;;;3.60;;
56141;SDS011;42018;48.588;10.836;2023-04-25T04:58:48;4.60;;;3.20;;
56141;SDS011;42018;48.588;10.836;2023-04-25T05:01:34;5.13;;;3.00;;
56141;SDS011;42018;48.588;10.836;2023-04-25T05:04:22;4.78;;;2.88;;
56141;SDS011;42018;48.588;10.836;2023-04-25T05:07:07;6.32;;;3.17;;
56141;SDS011;42018;48.588;10.836;2023-04-25T05:09:52;5.47;;;3.20;;
56141;SDS011;42018;48.588;10.836;2023-04-25T05:12:38;4.85;;;3.10;;
56141;SDS011;42018;48.588;10.836;2023-04-25T05:15:23;5.85;;;3.13;;
56141;SDS011;42018;48.588;10.836;2023-04-25T05:18:08;5.25;;;2.90;;
56141;SDS011;42018;48.588;10.836;2023-04-25T05:20:54;5.38;;;3.10;;
56141;SDS011;42018;48.588;10.836;2023-04-25T05:23:39;5.50;;;3.22;;
56141;SDS011;42018;48.588;10.836;2023-04-25T05:26:25;5.55;;;3.05;;
56141;SDS011;42018;48.588;10.836;2023-04-25T05:29:10;5.53;;;3.33;;
56141;SDS011;42018;48.588;10.836;2023-04-25T05:31:55;8.93;;;6.25;;
56141;SDS011;42018;48.588;10.836;2023-04-25T05:34:41;5.53;;;3.70;;
56141;SDS011;42018;48.588;10.836;2023-04-25T05:37:26;5.28;;;3.10;;
56141;SDS011;42018;48.588;10.836;2023-04-25T05:40:12;4.50;;;2.90;;
56141;SDS011;42018;48.588;10.836;2023-04-25T05:42:57;5.60;;;3.10;;
56141;SDS011;42018;48.588;10.836;2023-04-25T05:45:43;7.15;;;3.47;;
56141;SDS011;42018;48.588;10.836;2023-04-25T05:48:28;6.07;;;3.78;;
56141;SDS011;42018;48.588;10.836;2023-04-25T05:51:13;5.38;;;3.45;;
56141;SDS011;42018;48.588;10.836;2023-04-25T05:53:59;6.55;;;3.58;;
56141;SDS011;42018;48.588;10.836;2023-04-25T05:56:44;6.53;;;4.10;;
56141;SDS011;42018;48.588;10.836;2023-04-25T05:59:29;5.03;;;2.78;;
56141;SDS011;42018;48.588;10.836;2023-04-25T06:02:15;5.28;;;3.03;;
56141;SDS011;42018;48.588;10.836;2023-04-25T06:05:01;5.57;;;3.22;;
56141;SDS011;42018;48.588;10.836;2023-04-25T06:07:48;5.53;;;2.95;;
56141;SDS011;42018;48.588;10.836;2023-04-25T06:10:33;5.05;;;2.95;;
56141;SDS011;42018;48.588;10.836;2023-04-25T06:13:19;4.65;;;2.85;;
56141;SDS011;42018;48.588;10.836;2023-04-25T06:16:09;5.15;;;2.90;;
56141;SDS011;42018;48.588;10.836;2023-04-25T06:18:55;5.40;;;2.60;;
56141;SDS011;42018;48.588;10.836;2023-04-25T06:21:41;6.07;;;2.65;;
56141;SDS011;42018;48.588;10.836;2023-04-25T06:24:28;5.68;;;2.78;;
56141;SDS011;42018;48.588;10.836;2023-04-25T06:27:15;7.20;;;2.85;;
56141;SDS011;42018;48.588;10.836;2023-04-25T06:30:01;5.07;;;2.72;;
56141;SDS011;42018;48.588;10.836;2023-04-25T06:32:46;5.45;;;2.92;;
56141;SDS011;42018;48.588;10.836;2023-04-25T06:35:31;5.15;;;2.70;;
56141;SDS011;42018;48.588;10.836;2023-04-25T06:38:17;4.85;;;2.58;;
56141;SDS011;42018;48.588;10.836;2023-04-25T06:41:02;5.50;;;3.10;;
56141;SDS011;42018;48.588;10.836;2023-04-25T06:43:48;5.03;;;2.70;;
56141;SDS011;42018;48.588;10.836;2023-04-25T06:46:33;5.40;;;2.90;;
56141;SDS011;42018;48.588;10.836;2023-04-25T06:49:18;4.68;;;2.95;;
56141;SDS011;42018;48.588;10.836;2023-04-25T06:52:04;5.75;;;3.00;;
56141;SDS011;42018;48.588;10.836;2023-04-25T06:54:54;5.45;;;2.50;;
56141;SDS011;42018;48.588;10.836;2023-04-25T06:57:39;5.25;;;2.85;;
56141;SDS011;42018;48.588;10.836;2023-04-25T07:00:33;5.57;;;3.00;;
56141;SDS011;42018;48.588;10.836;2023-04-25T07:03:18;5.43;;;3.10;;
56141;SDS011;42018;48.588;10.836;2023-04-25T07:06:04;7.95;;;3.20;;
56141;SDS011;42018;48.588;10.836;2023-04-25T07:08:50;4.90;;;2.75;;
56141;SDS011;42018;48.588;10.836;2023-04-25T07:11:35;7.55;;;3.00;;
56141;SDS011;42018;48.588;10.836;2023-04-25T07:14:21;4.93;;;2.45;;
56141;SDS011;42018;48.588;10.836;2023-04-25T07:17:07;5.40;;;2.70;;
56141;SDS011;42018;48.588;10.836;2023-04-25T07:19:52;4.88;;;2.60;;
56141;SDS011;42018;48.588;10.836;2023-04-25T07:22:37;4.75;;;2.30;;
56141;SDS011;42018;48.588;10.836;2023-04-25T07:25:23;5.90;;;2.53;;
56141;SDS011;42018;48.588;10.836;2023-04-25T07:28:08;4.82;;;2.50;;
56141;SDS011;42018;48.588;10.836;2023-04-25T07:30:54;6.32;;;2.60;;
56141;SDS011;42018;48.588;10.836;2023-04-25T07:33:39;4.93;;;2.55;;
56141;SDS011;42018;48.588;10.836;2023-04-25T07:36:25;6.00;;;2.55;;
56141;SDS011;42018;48.588;10.836;2023-04-25T07:39:11;5.90;;;2.45;;
56141;SDS011;42018;48.588;10.836;2023-04-25T07:41:56;5.07;;;2.47;;
56141;SDS011;42018;48.588;10.836;2023-04-25T07:44:43;4.38;;;2.50;;
56141;SDS011;42018;48.588;10.836;2023-04-25T07:47:28;7.75;;;2.55;;
56141;SDS011;42018;48.588;10.836;2023-04-25T07:50:14;3.83;;;2.22;;
56141;SDS011;42018;48.588;10.836;2023-04-25T07:52:59;7.13;;;2.60;;
56141;SDS011;42018;48.588;10.836;2023-04-25T07:55:45;4.43;;;2.65;;
56141;SDS011;42018;48.588;10.836;2023-04-25T07:58:30;4.90;;;2.42;;
56141;SDS011;42018;48.588;10.836;2023-04-25T08:01:15;5.95;;;2.30;;
56141;SDS011;42018;48.588;10.836;2023-04-25T08:04:01;5.57;;;2.40;;
56141;SDS011;42018;48.588;10.836;2023-04-25T08:06:47;5.72;;;2.45;;
56141;SDS011;42018;48.588;10.836;2023-04-25T08:09:33;5.10;;;2.55;;
56141;SDS011;42018;48.588;10.836;2023-04-25T08:12:20;6.10;;;2.67;;
56141;SDS011;42018;48.588;10.836;2023-04-25T08:15:05;6.13;;;2.70;;
56141;SDS011;42018;48.588;10.836;2023-04-25T08:17:52;4.97;;;2.33;;
56141;SDS011;42018;48.588;10.836;2023-04-25T08:20:37;5.70;;;2.60;;
56141;SDS011;42018;48.588;10.836;2023-04-25T08:23:22;5.57;;;2.55;;
56141;SDS011;42018;48.588;10.836;2023-04-25T08:26:08;5.55;;;2.40;;
56141;SDS011;42018;48.588;10.836;2023-04-25T08:28:53;4.82;;;2.28;;
56141;SDS011;42018;48.588;10.836;2023-04-25T08:31:39;6.07;;;2.40;;
56141;SDS011;42018;48.588;10.836;2023-04-25T08:34:24;4.68;;;2.40;;
56141;SDS011;42018;48.588;10.836;2023-04-25T08:37:10;4.68;;;2.40;;
56141;SDS011;42018;48.588;10.836;2023-04-25T08:39:55;5.43;;;2.40;;
56141;SDS011;42018;48.588;10.836;2023-04-25T08:42:41;5.55;;;2.60;;
56141;SDS011;42018;48.588;10.836;2023-04-25T08:45:27;5.95;;;2.30;;
56141;SDS011;42018;48.588;10.836;2023-04-25T08:48:16;6.85;;;2.75;;
56141;SDS011;42018;48.588;10.836;2023-04-25T08:51:02;5.10;;;2.45;;
56141;SDS011;42018;48.588;10.836;2023-04-25T08:53:51;5.43;;;2.38;;
56141;SDS011;42018;48.588;10.836;2023-04-25T08:56:40;5.40;;;2.50;;
56141;SDS011;42018;48.588;10.836;2023-04-25T08:59:28;5.22;;;2.70;;
56141;SDS011;42018;48.588;10.836;2023-04-25T09:02:15;4.47;;;2.60;;
56141;SDS011;42018;48.588;10.836;2023-04-25T09:05:02;4.55;;;2.60;;
56141;SDS011;42018;48.588;10.836;2023-04-25T09:07:49;5.03;;;2.70;;
56141;SDS011;42018;48.588;10.836;2023-04-25T09:10:34;5.78;;;3.00;;
56141;SDS011;42018;48.588;10.836;2023-04-25T09:13:26;5.40;;;2.78;;
56141;SDS011;42018;48.588;10.836;2023-04-25T09:16:12;5.35;;;2.70;;
56141;SDS011;42018;48.588;10.836;2023-04-25T09:19:02;6.15;;;2.90;;
56141;SDS011;42018;48.588;10.836;2023-04-25T09:21:50;4.75;;;2.50;;
56141;SDS011;42018;48.588;10.836;2023-04-25T09:24:40;5.65;;;2.67;;
56141;SDS011;42018;48.588;10.836;2023-04-25T09:27:28;4.47;;;2.40;;
56141;SDS011;42018;48.588;10.836;2023-04-25T09:30:15;4.70;;;2.30;;
56141;SDS011;42018;48.588;10.836;2023-04-25T09:33:07;4.32;;;2.20;;
56141;SDS011;42018;48.588;10.836;2023-04-25T09:36:06;3.63;;;1.95;;
56141;SDS011;42018;48.588;10.836;2023-04-25T09:38:59;4.65;;;2.38;;
56141;SDS011;42018;48.588;10.836;2023-04-25T09:41:45;4.35;;;2.42;;
56141;SDS011;42018;48.588;10.836;2023-04-25T09:44:31;4.35;;;3.03;;
56141;SDS011;42018;48.588;10.836;2023-04-25T09:47:16;4.55;;;2.80;;
56141;SDS011;42018;48.588;10.836;2023-04-25T09:50:02;4.18;;;2.60;;
56141;SDS011;42018;48.588;10.836;2023-04-25T09:53:02;4.40;;;2.60;;
56141;SDS011;42018;48.588;10.836;2023-04-25T09:55:49;4.30;;;2.60;;
56141;SDS011;42018;48.588;10.836;2023-04-25T09:58:35;4.13;;;2.40;;
56141;SDS011;42018;48.588;10.836;2023-04-25T10:01:21;4.00;;;2.45;;
56141;SDS011;42018;48.588;10.836;2023-04-25T10:04:10;4.22;;;2.20;;
56141;SDS011;42018;48.588;10.836;2023-04-25T10:06:56;5.13;;;2.13;;
56141;SDS011;42018;48.588;10.836;2023-04-25T10:09:44;4.10;;;2.45;;
56141;SDS011;42018;48.588;10.836;2023-04-25T10:12:33;3.90;;;2.30;;
56141;SDS011;42018;48.588;10.836;2023-04-25T10:15:18;3.70;;;2.10;;
56141;SDS011;42018;48.588;10.836;2023-04-25T10:18:04;3.67;;;2.15;;
56141;SDS011;42018;48.588;10.836;2023-04-25T10:20:51;3.83;;;2.17;;
56141;SDS011;42018;48.588;10.836;2023-04-25T10:23:37;4.60;;;1.92;;
56141;SDS011;42018;48.588;10.836;2023-04-25T10:26:23;4.05;;;1.90;;
56141;SDS011;42018;48.588;10.836;2023-04-25T10:29:09;3.30;;;1.80;;
56141;SDS011;42018;48.588;10.836;2023-04-25T10:31:55;3.38;;;2.00;;
56141;SDS011;42018;48.588;10.836;2023-04-25T10:34:43;2.95;;;1.65;;
56141;SDS011;42018;48.588;10.836;2023-04-25T10:37:31;3.55;;;1.95;;
56141;SDS011;42018;48.588;10.836;2023-04-25T10:40:21;3.83;;;2.00;;
56141;SDS011;42018;48.588;10.836;2023-04-25T10:43:50;4.55;;;2.00;;
56141;SDS011;42018;48.588;10.836;2023-04-25T10:49:04;3.58;;;2.05;;
56141;SDS011;42018;48.588;10.836;2023-04-25T10:51:50;3.50;;;2.00;;
56141;SDS011;42018;48.588;10.836;2023-04-25T10:54:39;3.40;;;2.00;;
56141;SDS011;42018;48.588;10.836;2023-04-25T11:00:22;5.07;;;1.90;;
56141;SDS011;42018;48.588;10.836;2023-04-25T11:03:15;3.80;;;2.13;;
56141;SDS011;42018;48.588;10.836;2023-04-25T11:06:01;3.90;;;2.38;;
56141;SDS011;42018;48.588;10.836;2023-04-25T11:08:48;4.28;;;2.40;;
56141;SDS011;42018;48.588;10.836;2023-04-25T11:11:36;4.93;;;2.50;;
56141;SDS011;42018;48.588;10.836;2023-04-25T11:14:22;4.82;;;2.30;;
56141;SDS011;42018;48.588;10.836;2023-04-25T11:17:07;4.90;;;2.35;;
56141;SDS011;42018;48.588;10.836;2023-04-25T11:19:53;4.10;;;2.10;;
56141;SDS011;42018;48.588;10.836;2023-04-25T11:22:39;3.70;;;2.20;;
56141;SDS011;42018;48.588;10.836;2023-04-25T11:25:28;4.30;;;2.65;;
56141;SDS011;42018;48.588;10.836;2023-04-25T11:28:20;4.55;;;2.72;;
56141;SDS011;42018;48.588;10.836;2023-04-25T11:31:06;4.45;;;2.50;;
56141;SDS011;42018;48.588;10.836;2023-04-25T11:33:53;4.22;;;2.55;;
56141;SDS011;42018;48.588;10.836;2023-04-25T11:36:40;5.25;;;2.63;;
56141;SDS011;42018;48.588;10.836;2023-04-25T11:39:25;4.63;;;2.70;;
56141;SDS011;42018;48.588;10.836;2023-04-25T11:42:12;4.97;;;2.60;;
56141;SDS011;42018;48.588;10.836;2023-04-25T11:44:58;4.45;;;2.40;;
56141;SDS011;42018;48.588;10.836;2023-04-25T11:47:44;4.38;;;2.50;;
56141;SDS011;42018;48.588;10.836;2023-04-25T11:50:29;3.58;;;2.28;;
56141;SDS011;42018;48.588;10.836;2023-04-25T11:53:17;4.20;;;2.58;;
56141;SDS011;42018;48.588;10.836;2023-04-25T11:56:08;3.70;;;2.40;;
56141;SDS011;42018;48.588;10.836;2023-04-25T11:58:58;3.63;;;2.13;;
56141;SDS011;42018;48.588;10.836;2023-04-25T12:01:49;4.20;;;2.50;;
56141;SDS011;42018;48.588;10.836;2023-04-25T12:04:35;4.00;;;2.40;;
56141;SDS011;42018;48.588;10.836;2023-04-25T12:07:20;4.22;;;2.92;;
56141;SDS011;42018;48.588;10.836;2023-04-25T12:12:54;4.05;;;2.70;;
56141;SDS011;42018;48.588;10.836;2023-04-25T12:15:40;5.40;;;2.85;;
56141;SDS011;42018;48.588;10.836;2023-04-25T12:18:25;4.28;;;2.42;;
56141;SDS011;42018;48.588;10.836;2023-04-25T12:21:12;4.30;;;2.22;;
56141;SDS011;42018;48.588;10.836;2023-04-25T12:24:14;4.10;;;2.50;;
56141;SDS011;42018;48.588;10.836;2023-04-25T12:27:04;3.85;;;2.38;;
56141;SDS011;42018;48.588;10.836;2023-04-25T12:29:53;4.10;;;2.30;;
56141;SDS011;42018;48.588;10.836;2023-04-25T12:32:40;3.72;;;2.17;;
56141;SDS011;42018;48.588;10.836;2023-04-25T12:35:26;3.63;;;1.98;;
56141;SDS011;42018;48.588;10.836;2023-04-25T12:38:19;3.40;;;1.83;;
56141;SDS011;42018;48.588;10.836;2023-04-25T12:41:08;3.30;;;1.90;;
56141;SDS011;42018;48.588;10.836;2023-04-25T12:43:54;3.72;;;1.83;;
56141;SDS011;42018;48.588;10.836;2023-04-25T12:46:39;2.75;;;1.50;;
56141;SDS011;42018;48.588;10.836;2023-04-25T12:49:25;3.42;;;1.70;;
56141;SDS011;42018;48.588;10.836;2023-04-25T12:52:11;3.10;;;1.73;;
56141;SDS011;42018;48.588;10.836;2023-04-25T12:58:42;3.30;;;1.83;;
56141;SDS011;42018;48.588;10.836;2023-04-25T13:01:48;3.85;;;1.83;;
56141;SDS011;42018;48.588;10.836;2023-04-25T13:04:38;4.00;;;2.00;;
56141;SDS011;42018;48.588;10.836;2023-04-25T13:07:24;3.53;;;1.98;;
56141;SDS011;42018;48.588;10.836;2023-04-25T13:10:15;4.35;;;2.53;;
56141;SDS011;42018;48.588;10.836;2023-04-25T13:13:00;3.67;;;2.30;;
56141;SDS011;42018;48.588;10.836;2023-04-25T13:15:46;3.97;;;2.50;;
56141;SDS011;42018;48.588;10.836;2023-04-25T13:18:31;4.00;;;2.20;;
56141;SDS011;42018;48.588;10.836;2023-04-25T13:21:16;3.90;;;2.30;;
56141;SDS011;42018;48.588;10.836;2023-04-25T13:24:02;3.47;;;2.20;;
56141;SDS011;42018;48.588;10.836;2023-04-25T13:26:48;4.00;;;2.50;;
56141;SDS011;42018;48.588;10.836;2023-04-25T13:29:33;4.05;;;2.60;;
56141;SDS011;42018;48.588;10.836;2023-04-25T13:32:20;2.95;;;1.70;;
56141;SDS011;42018;48.588;10.836;2023-04-25T13:35:06;2.97;;;1.60;;
56141;SDS011;42018;48.588;10.836;2023-04-25T13:37:53;3.50;;;1.77;;
56141;SDS011;42018;48.588;10.836;2023-04-25T13:40:39;2.83;;;1.50;;
56141;SDS011;42018;48.588;10.836;2023-04-25T13:43:24;4.30;;;2.30;;
56141;SDS011;42018;48.588;10.836;2023-04-25T13:46:10;3.55;;;2.35;;
56141;SDS011;42018;48.588;10.836;2023-04-25T13:48:56;4.15;;;2.78;;
56141;SDS011;42018;48.588;10.836;2023-04-25T13:51:42;4.15;;;2.90;;
56141;SDS011;42018;48.588;10.836;2023-04-25T13:54:27;4.90;;;3.45;;
56141;SDS011;42018;48.588;10.836;2023-04-25T13:57:12;5.10;;;3.30;;
56141;SDS011;42018;48.588;10.836;2023-04-25T13:59:58;5.13;;;3.58;;
56141;SDS011;42018;48.588;10.836;2023-04-25T14:02:44;5.28;;;4.13;;
56141;SDS011;42018;48.588;10.836;2023-04-25T14:05:29;5.20;;;4.00;;
56141;SDS011;42018;48.588;10.836;2023-04-25T14:08:15;5.15;;;3.53;;
56141;SDS011;42018;48.588;10.836;2023-04-25T14:11:00;4.95;;;3.70;;
56141;SDS011;42018;48.588;10.836;2023-04-25T14:13:45;5.60;;;3.20;;
56141;SDS011;42018;48.588;10.836;2023-04-25T14:16:31;5.03;;;3.13;;
56141;SDS011;42018;48.588;10.836;2023-04-25T14:19:17;4.25;;;2.70;;
56141;SDS011;42018;48.588;10.836;2023-04-25T14:22:03;4.03;;;2.60;;
56141;SDS011;42018;48.588;10.836;2023-04-25T14:24:48;4.88;;;3.15;;
56141;SDS011;42018;48.588;10.836;2023-04-25T14:27:33;4.82;;;2.42;;
56141;SDS011;42018;48.588;10.836;2023-04-25T14:30:19;3.92;;;2.60;;
56141;SDS011;42018;48.588;10.836;2023-04-25T14:33:05;4.50;;;2.65;;
56141;SDS011;42018;48.588;10.836;2023-04-25T14:35:51;5.40;;;2.53;;
56141;SDS011;42018;48.588;10.836;2023-04-25T14:38:37;4.43;;;2.80;;
56141;SDS011;42018;48.588;10.836;2023-04-25T14:41:23;5.00;;;2.80;;
56141;SDS011;42018;48.588;10.836;2023-04-25T14:44:09;4.32;;;3.05;;
56141;SDS011;42018;48.588;10.836;2023-04-25T14:46:55;5.40;;;3.33;;
56141;SDS011;42018;48.588;10.836;2023-04-25T14:49:40;4.75;;;3.38;;
56141;SDS011;42018;48.588;10.836;2023-04-25T14:52:26;4.70;;;3.25;;
56141;SDS011;42018;48.588;10.836;2023-04-25T14:55:11;4.85;;;3.53;;
56141;SDS011;42018;48.588;10.836;2023-04-25T14:57:57;5.15;;;3.55;;
56141;SDS011;42018;48.588;10.836;2023-04-25T15:00:42;4.78;;;3.20;;
56141;SDS011;42018;48.588;10.836;2023-04-25T15:03:29;5.65;;;3.55;;
56141;SDS011;42018;48.588;10.836;2023-04-25T15:06:14;5.60;;;3.60;;
56141;SDS011;42018;48.588;10.836;2023-04-25T15:08:59;4.90;;;3.47;;
56141;SDS011;42018;48.588;10.836;2023-04-25T15:11:45;6.15;;;3.40;;
56141;SDS011;42018;48.588;10.836;2023-04-25T15:14:30;4.90;;;3.33;;
56141;SDS011;42018;48.588;10.836;2023-04-25T15:17:16;4.63;;;3.15;;
56141;SDS011;42018;48.588;10.836;2023-04-25T15:20:01;5.30;;;3.35;;
56141;SDS011;42018;48.588;10.836;2023-04-25T15:22:47;6.35;;;3.75;;
56141;SDS011;42018;48.588;10.836;2023-04-25T15:25:33;5.63;;;3.70;;
56141;SDS011;42018;48.588;10.836;2023-04-25T15:28:19;6.70;;;3.72;;
56141;SDS011;42018;48.588;10.836;2023-04-25T15:31:06;5.68;;;4.05;;
56141;SDS011;42018;48.588;10.836;2023-04-25T15:33:51;6.60;;;3.90;;
56141;SDS011;42018;48.588;10.836;2023-04-25T15:36:37;5.40;;;3.80;;
56141;SDS011;42018;48.588;10.836;2023-04-25T15:39:22;6.65;;;4.47;;
56141;SDS011;42018;48.588;10.836;2023-04-25T15:42:08;5.30;;;4.20;;
56141;SDS011;42018;48.588;10.836;2023-04-25T15:44:55;5.30;;;4.05;;
56141;SDS011;42018;48.588;10.836;2023-04-25T15:47:41;5.57;;;4.07;;
56141;SDS011;42018;48.588;10.836;2023-04-25T15:50:27;6.72;;;4.10;;
56141;SDS011;42018;48.588;10.836;2023-04-25T15:53:12;5.93;;;4.65;;
56141;SDS011;42018;48.588;10.836;2023-04-25T16:14:49;5.22;;;3.50;;
56141;SDS011;42018;48.588;10.836;2023-04-25T16:17:36;4.70;;;3.10;;
56141;SDS011;42018;48.588;10.836;2023-04-25T16:20:21;4.45;;;2.30;;
56141;SDS011;42018;48.588;10.836;2023-04-25T16:23:07;5.80;;;3.10;;
56141;SDS011;42018;48.588;10.836;2023-04-25T16:25:53;4.93;;;2.83;;
56141;SDS011;42018;48.588;10.836;2023-04-25T16:28:39;4.90;;;2.78;;
56141;SDS011;42018;48.588;10.836;2023-04-25T16:31:24;5.43;;;2.75;;
56141;SDS011;42018;48.588;10.836;2023-04-25T16:34:10;4.43;;;2.47;;
56141;SDS011;42018;48.588;10.836;2023-04-25T16:36:56;5.03;;;2.67;;
56141;SDS011;42018;48.588;10.836;2023-04-25T16:39:41;4.32;;;2.22;;
56141;SDS011;42018;48.588;10.836;2023-04-25T16:42:26;4.53;;;2.40;;
56141;SDS011;42018;48.588;10.836;2023-04-25T16:45:12;4.68;;;2.25;;
56141;SDS011;42018;48.588;10.836;2023-04-25T16:47:58;4.22;;;2.22;;
56141;SDS011;42018;48.588;10.836;2023-04-25T16:50:43;3.72;;;2.03;;
56141;SDS011;42018;48.588;10.836;2023-04-25T16:53:29;3.70;;;2.25;;
56141;SDS011;42018;48.588;10.836;2023-04-25T16:56:15;3.63;;;2.10;;